createdAt,value
2023-09-08T00:00:14.477Z,10.30
2023-09-08T00:03:27.163Z,10.52
2023-09-08T00:06:39.529Z,9.90
2023-09-08T00:09:52.208Z,11.12
2023-09-08T00:13:04.745Z,8.90
2023-09-08T00:16:17.725Z,9.27
2023-09-08T00:19:30.239Z,10.05
2023-09-08T00:22:42.993Z,10.88
2023-09-08T00:25:56.605Z,9.80
2023-09-08T00:29:09.317Z,11.48
2023-09-08T00:32:21.790Z,10.68
2023-09-08T00:35:34.538Z,10.27
2023-09-08T00:38:46.993Z,9.45
2023-09-08T00:41:59.636Z,9.90
2023-09-08T00:45:12.245Z,10.18
2023-09-08T00:48:25.078Z,9.60
2023-09-08T00:51:39.270Z,11.10
2023-09-08T00:54:52.089Z,11.65
2023-09-08T00:58:04.558Z,11.05
2023-09-08T01:01:18.673Z,11.80
2023-09-08T01:04:31.329Z,9.52
2023-09-08T01:07:44.171Z,11.55
2023-09-08T01:10:56.845Z,9.63
2023-09-08T01:14:09.595Z,11.60
2023-09-08T01:17:22.031Z,10.57
2023-09-08T01:20:54.677Z,9.95
2023-09-08T01:24:22.352Z,9.80
2023-09-08T01:27:35.361Z,10.35
2023-09-08T01:30:47.840Z,11.40
2023-09-08T01:34:01.933Z,8.25
2023-09-08T01:37:14.433Z,9.15
2023-09-08T01:40:27.093Z,10.50
2023-09-08T01:43:39.586Z,11.57
2023-09-08T01:46:57.761Z,11.20
2023-09-08T01:50:10.406Z,10.95
2023-09-08T01:53:23.073Z,10.80
2023-09-08T01:56:35.474Z,10.32
2023-09-08T01:59:49.089Z,13.32
2023-09-08T02:03:01.549Z,13.55
2023-09-08T02:06:14.261Z,13.48
2023-09-08T02:09:37.817Z,11.73
2023-09-08T02:12:50.479Z,12.30
2023-09-08T02:16:02.950Z,10.60
2023-09-08T02:19:16.035Z,12.55
2023-09-08T02:22:28.733Z,11.63
2023-09-08T02:25:41.377Z,10.07
2023-09-08T02:28:54.069Z,10.80
2023-09-08T02:32:06.789Z,13.20
2023-09-08T02:35:19.964Z,12.60
2023-09-08T02:38:33.560Z,12.43
2023-09-08T02:41:46.636Z,15.80
2023-09-08T02:44:59.077Z,13.90
2023-09-08T02:48:11.942Z,11.12
2023-09-08T02:51:24.495Z,12.00
2023-09-08T02:54:39.230Z,12.82
2023-09-08T02:57:51.679Z,12.63
2023-09-08T03:01:30.663Z,10.93
2023-09-08T03:04:43.189Z,13.20
2023-09-08T03:07:56.121Z,14.10
2023-09-08T03:11:08.832Z,10.15
2023-09-08T03:14:21.542Z,11.02
2023-09-08T03:17:33.923Z,11.20
2023-09-08T03:20:52.575Z,12.02
2023-09-08T03:24:05.343Z,12.35
2023-09-08T03:27:19.514Z,14.50
2023-09-08T03:30:31.955Z,12.02
2023-09-08T03:33:44.769Z,14.25
2023-09-08T03:36:57.628Z,16.42
2023-09-08T03:40:10.756Z,15.50
2023-09-08T03:43:23.493Z,11.95
2023-09-08T03:46:37.439Z,16.08
2023-09-08T03:49:49.975Z,13.35
2023-09-08T03:53:02.748Z,18.30
2023-09-08T03:56:15.233Z,15.95
2023-09-08T03:59:27.948Z,18.37
2023-09-08T04:02:40.354Z,20.30
2023-09-08T04:05:53.145Z,29.30
2023-09-08T04:09:05.621Z,21.33
2023-09-08T04:12:18.368Z,17.85
2023-09-08T04:15:30.799Z,22.17
2023-09-08T04:18:43.579Z,24.42
2023-09-08T04:21:56.333Z,19.10
2023-09-08T04:25:09.251Z,21.12
2023-09-08T04:28:21.671Z,14.30
2023-09-08T04:31:34.356Z,18.45
2023-09-08T04:34:46.865Z,13.18
2023-09-08T04:38:00.110Z,15.57
2023-09-08T04:41:14.332Z,13.30
2023-09-08T04:44:27.316Z,13.13
2023-09-08T04:47:40.045Z,17.80
2023-09-08T04:50:52.782Z,17.92
2023-09-08T04:54:05.570Z,15.02
2023-09-08T04:57:23.156Z,16.62
2023-09-08T05:00:39.784Z,16.55
2023-09-08T05:03:52.843Z,15.77
2023-09-08T05:07:05.346Z,16.40
2023-09-08T05:10:18.674Z,13.38
2023-09-08T05:13:32.349Z,15.73
2023-09-08T05:16:50.702Z,14.50
2023-09-08T05:20:04.524Z,14.07
2023-09-08T05:23:17.276Z,15.98
2023-09-08T05:26:29.824Z,18.77
2023-09-08T05:29:42.594Z,12.73
2023-09-08T05:32:55.151Z,13.40
2023-09-08T05:36:08.277Z,19.30
2023-09-08T05:39:22.189Z,17.45
2023-09-08T05:42:34.921Z,14.23
2023-09-08T05:45:47.405Z,15.60
2023-09-08T05:49:00.506Z,16.30
2023-09-08T05:52:13.506Z,13.80
2023-09-08T05:55:27.306Z,16.45
2023-09-08T05:58:40.569Z,12.90
2023-09-08T06:01:53.580Z,12.82
2023-09-08T06:05:06.551Z,12.00
2023-09-08T06:08:19.667Z,15.35
2023-09-08T06:11:32.424Z,17.65
2023-09-08T06:14:44.917Z,11.88
2023-09-08T06:17:58.151Z,13.85
2023-09-08T06:21:11.054Z,14.30
2023-09-08T06:24:23.916Z,12.15
2023-09-08T06:27:36.781Z,12.68
2023-09-08T06:30:49.540Z,13.45
2023-09-08T06:34:02.352Z,12.77
2023-09-08T06:37:15.269Z,11.12
2023-09-08T06:40:30.599Z,11.73
2023-09-08T06:43:44.020Z,14.95
2023-09-08T06:46:57.030Z,15.35
2023-09-08T06:50:11.141Z,10.90
2023-09-08T06:53:24.328Z,9.02
2023-09-08T06:56:38.279Z,13.10
2023-09-08T06:59:51.153Z,11.05
2023-09-08T07:03:04.228Z,12.85
2023-09-08T07:06:17.386Z,11.75
2023-09-08T07:09:30.297Z,10.35
2023-09-08T07:12:42.863Z,12.43
2023-09-08T07:15:56.085Z,12.18
2023-09-08T07:19:11.512Z,11.48
2023-09-08T07:22:24.697Z,12.57
2023-09-08T07:25:37.125Z,12.02
2023-09-08T07:28:50.572Z,16.92
2023-09-08T07:32:04.321Z,12.60
2023-09-08T07:35:18.084Z,13.88
2023-09-08T07:38:30.880Z,10.35
2023-09-08T07:41:43.876Z,12.52
2023-09-08T07:44:56.495Z,9.52
2023-09-08T07:48:09.237Z,11.00
2023-09-08T07:51:21.680Z,11.85
2023-09-08T07:54:34.447Z,11.25
2023-09-08T07:57:49.991Z,10.70
2023-09-08T08:01:02.697Z,14.65
2023-09-08T08:04:15.433Z,12.30
2023-09-08T08:07:27.892Z,10.95
2023-09-08T08:10:42.919Z,12.00
2023-09-08T08:13:55.566Z,8.95
2023-09-08T08:17:08.289Z,12.15
2023-09-08T08:20:20.876Z,11.38
2023-09-08T08:23:35.107Z,11.77
2023-09-08T08:26:48.122Z,12.27
2023-09-08T08:30:02.218Z,8.93
2023-09-08T08:33:15.601Z,13.90
2023-09-08T08:36:28.440Z,15.07
2023-09-08T08:39:40.810Z,10.13
2023-09-08T08:42:57.439Z,9.70
2023-09-08T08:46:10.802Z,10.77
2023-09-08T08:49:23.549Z,16.65
2023-09-08T08:52:35.944Z,10.00
2023-09-08T08:55:48.696Z,14.52
2023-09-08T08:59:02.182Z,12.65
2023-09-08T09:02:16.031Z,10.70
2023-09-08T09:05:28.500Z,10.93
2023-09-08T09:08:41.821Z,10.77
2023-09-08T09:11:54.354Z,10.57
2023-09-08T09:15:07.746Z,10.50
2023-09-08T09:18:20.332Z,10.23
2023-09-08T09:21:48.883Z,10.90
2023-09-08T09:25:01.839Z,9.00
2023-09-08T09:28:14.671Z,10.32
2023-09-08T09:31:27.200Z,10.02
2023-09-08T09:34:51.088Z,12.77
2023-09-08T09:38:03.696Z,10.68
2023-09-08T09:41:16.415Z,10.07
2023-09-08T09:44:28.956Z,9.18
2023-09-08T09:47:41.673Z,11.35
2023-09-08T09:50:54.949Z,12.02
2023-09-08T09:54:07.686Z,13.05
2023-09-08T09:57:21.848Z,12.00
2023-09-08T10:00:35.625Z,9.13
2023-09-08T10:03:48.405Z,9.15
2023-09-08T10:07:00.899Z,11.27
2023-09-08T10:10:13.704Z,9.85
2023-09-08T10:13:29.921Z,10.70
2023-09-08T10:16:43.973Z,16.10
2023-09-08T10:19:56.532Z,11.05
2023-09-08T10:23:14.233Z,11.65
2023-09-08T10:26:28.115Z,10.77
2023-09-08T10:29:40.820Z,9.75
2023-09-08T10:32:53.309Z,21.17
2023-09-08T10:36:06.599Z,7.90
2023-09-08T10:39:43.119Z,8.98
2023-09-08T10:43:08.826Z,8.88
2023-09-08T10:46:25.474Z,11.93
2023-09-08T10:49:39.304Z,10.15
2023-09-08T10:53:09.256Z,10.52
2023-09-08T10:56:22.026Z,11.48
2023-09-08T10:59:37.535Z,9.57
2023-09-08T11:02:50.786Z,7.62
2023-09-08T11:06:03.730Z,10.45
2023-09-08T11:09:16.975Z,11.60
2023-09-08T11:12:29.541Z,14.35
2023-09-08T11:15:42.233Z,11.85
2023-09-08T11:18:54.695Z,10.68
2023-09-08T11:22:07.470Z,9.63
2023-09-08T11:25:21.235Z,10.02
2023-09-08T11:28:34.396Z,8.10
2023-09-08T11:31:52.641Z,17.52
2023-09-08T11:35:10.539Z,8.85
2023-09-08T11:38:29.760Z,8.60
2023-09-08T11:41:42.732Z,10.38
2023-09-08T11:44:55.148Z,8.68
2023-09-08T11:48:07.912Z,9.30
2023-09-08T11:51:27.424Z,12.93
2023-09-08T11:54:51.928Z,10.70
2023-09-08T11:58:08.546Z,9.40
2023-09-08T12:01:21.237Z,14.87
2023-09-08T12:04:37.287Z,12.23
2023-09-08T12:07:51.610Z,9.27
2023-09-08T12:11:04.508Z,9.65
2023-09-08T12:14:17.008Z,11.95
2023-09-08T12:17:29.873Z,10.05
2023-09-08T12:20:42.326Z,10.60
2023-09-08T12:23:55.158Z,9.63
2023-09-08T12:27:07.649Z,9.93
2023-09-08T12:30:22.764Z,7.55
2023-09-08T12:33:36.036Z,7.37
2023-09-08T12:36:48.731Z,6.72
2023-09-08T12:40:02.686Z,9.63
2023-09-08T12:43:26.983Z,8.57
2023-09-08T12:46:41.158Z,8.73
2023-09-08T12:49:55.430Z,7.43
2023-09-08T12:53:07.784Z,7.55
2023-09-08T12:56:20.457Z,10.07
2023-09-08T12:59:32.886Z,9.90
2023-09-08T13:02:45.729Z,10.02
2023-09-08T13:05:58.149Z,11.57
2023-09-08T13:09:10.822Z,7.25
2023-09-08T13:12:23.268Z,9.45
2023-09-08T13:15:36.032Z,9.30
2023-09-08T13:18:48.645Z,11.15
2023-09-08T13:22:01.333Z,8.30
2023-09-08T13:25:13.737Z,11.65
2023-09-08T13:28:26.432Z,11.20
2023-09-08T13:31:38.837Z,11.80
2023-09-08T13:34:51.672Z,9.15
2023-09-08T13:38:04.249Z,10.00
2023-09-08T13:41:17.033Z,8.82
2023-09-08T13:44:29.636Z,9.75
2023-09-08T13:47:42.597Z,8.52
2023-09-08T13:50:59.178Z,7.85
2023-09-08T13:54:13.241Z,8.35
2023-09-08T14:00:44.961Z,8.05
2023-09-08T14:04:03.518Z,10.02
2023-09-08T14:13:50.295Z,10.55
2023-09-08T14:17:03.136Z,8.80
2023-09-08T14:20:15.563Z,8.93
2023-09-08T14:23:28.297Z,9.20
2023-09-08T14:26:40.744Z,9.35
2023-09-08T14:29:53.625Z,8.40
2023-09-08T14:33:07.144Z,9.38
2023-09-08T14:36:20.003Z,8.50
2023-09-08T14:39:32.543Z,11.10
2023-09-08T14:42:45.208Z,9.15
2023-09-08T14:46:02.120Z,8.02
2023-09-08T14:49:16.306Z,8.57
2023-09-08T14:52:28.621Z,8.70
2023-09-08T14:55:43.380Z,7.37
2023-09-08T14:58:56.033Z,8.25
2023-09-08T15:02:11.537Z,11.55
2023-09-08T15:05:23.912Z,10.73
2023-09-08T15:08:36.586Z,10.15
2023-09-08T15:11:49.470Z,10.60
2023-09-08T15:15:02.281Z,8.13
2023-09-08T15:18:14.824Z,7.87
2023-09-08T15:21:30.929Z,11.05
2023-09-08T15:24:43.371Z,9.30
2023-09-08T15:27:56.040Z,6.85
2023-09-08T15:31:08.489Z,9.40
2023-09-08T15:34:21.145Z,11.88
2023-09-08T15:37:34.382Z,8.43
2023-09-08T15:41:05.665Z,10.80
2023-09-08T15:44:18.359Z,7.45
2023-09-08T15:47:31.123Z,7.57
2023-09-08T15:50:43.596Z,8.75
2023-09-08T15:53:56.267Z,8.32
2023-09-08T15:57:10.256Z,8.48
2023-09-08T16:00:22.972Z,8.45
2023-09-08T16:03:36.062Z,7.05
2023-09-08T16:06:49.366Z,7.03
2023-09-08T16:10:04.463Z,8.90
2023-09-08T16:13:16.963Z,7.85
2023-09-08T16:16:29.758Z,9.52
2023-09-08T16:19:43.624Z,8.60
2023-09-08T16:22:56.329Z,13.18
2023-09-08T16:26:09.277Z,8.32
2023-09-08T16:29:22.353Z,8.20
2023-09-08T16:32:34.760Z,8.95
2023-09-08T16:35:47.458Z,11.32
2023-09-08T16:38:59.860Z,9.45
2023-09-08T16:42:15.772Z,9.15
2023-09-08T16:45:28.136Z,7.78
2023-09-08T16:48:40.799Z,10.40
2023-09-08T16:51:55.039Z,7.78
2023-09-08T16:55:12.539Z,9.73
2023-09-08T16:58:25.153Z,8.60
2023-09-08T17:01:38.090Z,10.02
2023-09-08T17:04:50.501Z,9.75
2023-09-08T17:08:03.569Z,10.82
2023-09-08T17:11:16.654Z,11.57
2023-09-08T17:14:30.679Z,12.18
2023-09-08T17:17:43.067Z,20.42
2023-09-08T17:20:59.306Z,8.73
2023-09-08T17:24:12.099Z,9.38
2023-09-08T17:27:24.900Z,11.73
2023-09-08T17:30:37.316Z,13.90
2023-09-08T17:33:50.980Z,14.18
2023-09-08T17:37:03.822Z,14.23
2023-09-08T17:40:16.610Z,19.73
2023-09-08T17:43:29.081Z,15.40
2023-09-08T17:46:42.771Z,18.73
2023-09-08T17:49:55.222Z,20.15
2023-09-08T17:53:09.161Z,18.58
2023-09-08T17:56:21.668Z,15.77
2023-09-08T17:59:34.381Z,16.45
2023-09-08T18:02:46.830Z,18.05
2023-09-08T18:05:59.689Z,18.58
2023-09-08T18:09:12.153Z,15.68
2023-09-08T18:12:24.909Z,17.87
2023-09-08T18:15:37.513Z,19.55
2023-09-08T18:18:50.405Z,18.35
2023-09-08T18:22:05.999Z,18.75
2023-09-08T18:25:18.737Z,18.63
2023-09-08T18:28:31.384Z,15.73
2023-09-08T18:31:44.130Z,20.33
2023-09-08T18:34:56.576Z,16.98
2023-09-08T18:38:10.106Z,18.05
2023-09-08T18:41:22.578Z,13.27
2023-09-08T18:44:40.747Z,17.95
2023-09-08T18:47:53.119Z,16.90
2023-09-08T18:51:05.843Z,20.58
2023-09-08T18:54:18.253Z,18.35
2023-09-08T18:57:31.605Z,17.90
2023-09-08T19:00:45.501Z,16.17
2023-09-08T19:03:58.245Z,18.73
2023-09-08T19:07:10.673Z,19.12
2023-09-08T19:10:23.350Z,15.07
2023-09-08T19:13:36.008Z,15.85
2023-09-08T19:16:48.952Z,16.50
2023-09-08T19:20:01.360Z,15.95
2023-09-08T19:23:14.139Z,17.00
2023-09-08T19:26:26.483Z,19.87
2023-09-08T19:29:39.421Z,17.52
2023-09-08T19:32:51.832Z,17.33
2023-09-08T19:36:04.766Z,14.45
2023-09-08T19:39:17.578Z,11.63
2023-09-08T19:42:30.331Z,14.45
2023-09-08T19:45:42.687Z,15.63
2023-09-08T19:48:55.620Z,16.52
2023-09-08T19:52:08.207Z,13.75
2023-09-08T19:55:20.882Z,12.37
2023-09-08T19:58:33.276Z,17.15
2023-09-08T20:01:47.500Z,10.88
2023-09-08T20:05:00.311Z,11.80
2023-09-08T20:08:13.036Z,12.57
2023-09-08T20:11:25.650Z,12.07
2023-09-08T20:14:37.998Z,11.43
2023-09-08T20:17:50.727Z,12.18
2023-09-08T20:21:04.247Z,13.10
2023-09-08T20:24:17.847Z,13.23
2023-09-08T20:27:30.273Z,11.73
2023-09-08T20:30:43.016Z,12.30
2023-09-08T20:33:55.653Z,12.90
2023-09-08T20:37:08.294Z,14.02
2023-09-08T20:40:20.733Z,14.43
2023-09-08T20:43:33.799Z,11.45
2023-09-08T20:46:47.606Z,15.63
2023-09-08T20:50:00.387Z,11.75
2023-09-08T20:53:12.782Z,14.27
2023-09-08T20:56:25.489Z,12.40
2023-09-08T20:59:37.907Z,12.65
2023-09-08T21:02:50.625Z,14.27
2023-09-08T21:06:03.759Z,15.48
2023-09-08T21:09:16.472Z,12.52
2023-09-08T21:12:28.853Z,11.63
2023-09-08T21:15:42.021Z,11.00
2023-09-08T21:18:54.760Z,15.20
2023-09-08T21:22:07.465Z,12.27
2023-09-08T21:25:19.924Z,10.60
2023-09-08T21:28:32.653Z,12.85
2023-09-08T21:31:49.730Z,11.38
2023-09-08T21:35:02.446Z,13.73
2023-09-08T21:38:14.861Z,12.43
2023-09-08T21:41:27.484Z,13.98
2023-09-08T21:44:39.841Z,11.07
2023-09-08T21:47:53.705Z,10.15
2023-09-08T21:51:06.377Z,10.07
2023-09-08T21:54:19.526Z,10.00
2023-09-08T21:57:31.940Z,11.98
2023-09-08T22:00:44.618Z,10.60
2023-09-08T22:03:57.467Z,11.00
2023-09-08T22:07:09.924Z,9.95
2023-09-08T22:10:23.027Z,11.93
2023-09-08T22:13:37.605Z,10.93
2023-09-08T22:16:50.593Z,11.18
2023-09-08T22:20:13.842Z,9.88
2023-09-08T22:23:26.819Z,11.48
2023-09-08T22:26:39.185Z,13.20
2023-09-08T22:29:51.934Z,14.68
2023-09-08T22:33:04.638Z,9.88
2023-09-08T22:36:17.433Z,12.30
2023-09-08T22:39:30.282Z,12.07
2023-09-08T22:42:43.007Z,12.27
2023-09-08T22:45:55.646Z,9.93
2023-09-08T22:49:08.300Z,12.07
2023-09-08T22:52:20.896Z,10.60
2023-09-08T22:55:33.784Z,9.95
2023-09-08T22:58:46.221Z,13.05
2023-09-08T23:01:58.946Z,10.65
2023-09-08T23:05:12.465Z,11.27
2023-09-08T23:08:25.181Z,10.68
2023-09-08T23:11:37.591Z,15.10
2023-09-08T23:14:54.720Z,12.00
2023-09-08T23:18:10.798Z,10.40
2023-09-08T23:21:23.620Z,9.93
2023-09-08T23:24:35.966Z,11.80
2023-09-08T23:27:48.607Z,14.10
2023-09-08T23:31:01.028Z,11.40
2023-09-08T23:34:13.837Z,11.95
2023-09-08T23:37:26.518Z,9.60
2023-09-08T23:40:39.296Z,9.45
2023-09-08T23:43:51.679Z,9.00
2023-09-08T23:47:07.472Z,12.18
2023-09-08T23:50:19.924Z,11.45
2023-09-08T23:53:32.666Z,8.50
2023-09-08T23:56:45.304Z,9.75
2023-09-08T23:59:58.214Z,10.20
